createdAt,value
2024-01-16T00:00:25.352Z,99974.28
2024-01-16T00:02:52.036Z,99975.13
2024-01-16T00:05:18.708Z,99976.84
2024-01-16T00:07:45.330Z,99974.28
2024-01-16T00:10:12.077Z,99959.72
2024-01-16T00:12:38.778Z,99963.16
2024-01-16T00:15:06.941Z,99964.84
2024-01-16T00:17:33.720Z,99960.56
2024-01-16T00:20:02.175Z,99975.97
2024-01-16T00:22:29.174Z,99968.28
2024-01-16T00:24:55.890Z,99970.81
2024-01-16T00:27:22.578Z,99962.28
2024-01-16T00:29:49.245Z,99951.09
2024-01-16T00:32:17.412Z,99947.69
2024-01-16T00:34:44.268Z,99923.75
2024-01-16T00:37:11.224Z,99944.19
2024-01-16T00:39:37.811Z,99927.16
2024-01-16T00:42:04.690Z,99945.06
2024-01-16T00:44:31.324Z,99940.78
2024-01-16T00:46:58.097Z,99930.50
2024-01-16T00:49:24.772Z,99927.91
2024-01-16T00:51:51.412Z,99939.88
2024-01-16T00:54:18.032Z,99927.03
2024-01-16T00:56:44.922Z,99925.34
2024-01-16T00:59:11.593Z,99895.44
2024-01-16T01:01:41.262Z,99918.47
2024-01-16T01:04:07.890Z,99923.63
2024-01-16T01:06:36.695Z,99909.88
2024-01-16T01:09:04.201Z,99916.75
2024-01-16T01:11:30.853Z,99888.50
2024-01-16T01:13:57.531Z,99917.56
2024-01-16T01:16:24.336Z,99908.19
2024-01-16T01:18:51.316Z,99913.22
2024-01-16T01:21:18.271Z,99910.72
2024-01-16T01:23:44.980Z,99907.25
2024-01-16T01:26:14.884Z,99898.69
2024-01-16T01:28:42.752Z,99867.19
2024-01-16T01:31:10.921Z,99900.47
2024-01-16T01:33:37.821Z,99901.38
2024-01-16T01:36:04.697Z,99884.31
2024-01-16T01:38:31.332Z,99896.28
2024-01-16T01:40:58.056Z,99894.56
2024-01-16T01:43:26.387Z,99886.91
2024-01-16T01:46:15.592Z,99887.75
2024-01-16T01:48:43.343Z,99891.19
2024-01-16T01:51:11.243Z,99880.06
2024-01-16T01:53:38.304Z,99869.84
2024-01-16T01:56:08.490Z,99886.97
2024-01-16T01:58:35.754Z,99878.34
2024-01-16T02:01:03.729Z,99869.81
2024-01-16T02:03:31.694Z,99872.31
2024-01-16T02:05:59.192Z,99863.72
2024-01-16T02:08:25.942Z,99856.84
2024-01-16T02:10:52.677Z,99852.59
2024-01-16T02:13:24.276Z,99845.75
2024-01-16T02:15:51.690Z,99848.31
2024-01-16T02:18:19.216Z,99842.38
2024-01-16T02:20:47.043Z,99826.97
2024-01-16T02:23:15.874Z,99836.34
2024-01-16T02:25:43.360Z,99817.53
2024-01-16T02:28:10.064Z,99818.47
2024-01-16T02:30:37.126Z,99817.69
2024-01-16T02:33:05.132Z,99818.47
2024-01-16T02:35:31.897Z,99813.34
2024-01-16T02:37:58.647Z,99813.34
2024-01-16T02:40:25.293Z,99807.44
2024-01-16T02:42:52.106Z,99811.75
2024-01-16T02:45:19.032Z,99804.00
2024-01-16T02:47:45.754Z,99806.56
2024-01-16T02:50:12.464Z,99790.31
2024-01-16T02:52:39.112Z,99792.88
2024-01-16T02:55:06.333Z,99790.31
2024-01-16T02:57:33.262Z,99791.16
2024-01-16T02:59:59.868Z,99787.75
2024-01-16T03:02:26.538Z,99783.50
2024-01-16T03:04:53.197Z,99774.94
2024-01-16T03:07:19.780Z,99774.13
2024-01-16T03:09:46.377Z,99782.63
2024-01-16T03:12:13.429Z,99768.19
2024-01-16T03:14:40.323Z,99770.66
2024-01-16T03:17:08.306Z,99766.41
2024-01-16T03:19:34.991Z,99761.31
2024-01-16T03:22:01.592Z,99754.44
2024-01-16T03:24:28.244Z,99755.31
2024-01-16T03:26:54.969Z,99748.50
2024-01-16T03:29:22.338Z,99745.06
2024-01-16T03:31:49.245Z,99745.91
2024-01-16T03:34:16.010Z,99752.81
2024-01-16T03:36:42.887Z,99754.47
2024-01-16T03:39:10.153Z,99745.09
2024-01-16T03:41:36.971Z,99739.97
2024-01-16T03:44:03.680Z,99735.72
2024-01-16T03:46:30.498Z,99729.72
2024-01-16T03:48:57.299Z,99731.44
2024-01-16T03:51:23.945Z,99725.44
2024-01-16T03:53:50.599Z,99713.47
2024-01-16T03:56:17.868Z,99712.59
2024-01-16T03:58:44.677Z,99710.91
2024-01-16T04:01:11.438Z,99710.88
2024-01-16T04:03:39.682Z,99709.16
2024-01-16T04:06:17.107Z,99696.38
2024-01-16T04:08:43.871Z,99695.53
2024-01-16T04:11:14.778Z,99686.97
2024-01-16T04:13:41.974Z,99694.63
2024-01-16T04:16:08.600Z,99686.91
2024-01-16T04:18:41.280Z,99675.00
2024-01-16T04:21:08.097Z,99666.34
2024-01-16T04:23:35.057Z,99664.66
2024-01-16T04:26:01.709Z,99660.34
2024-01-16T04:28:28.361Z,99656.03
2024-01-16T04:30:55.193Z,99645.81
2024-01-16T04:33:22.032Z,99610.81
2024-01-16T04:35:48.828Z,99644.06
2024-01-16T04:38:15.533Z,99632.97
2024-01-16T04:40:42.181Z,99622.72
2024-01-16T04:43:08.852Z,99628.63
2024-01-16T04:45:35.502Z,99621.00
2024-01-16T04:48:02.260Z,99626.13
2024-01-16T04:50:32.971Z,99603.94
2024-01-16T04:53:02.962Z,99614.13
2024-01-16T04:55:30.560Z,99620.94
2024-01-16T04:57:58.086Z,99594.47
2024-01-16T05:00:24.712Z,99592.75
2024-01-16T05:02:52.715Z,99598.72
2024-01-16T05:05:19.699Z,99595.41
2024-01-16T05:07:46.921Z,99596.22
2024-01-16T05:10:14.119Z,99582.63
2024-01-16T05:12:41.801Z,99587.69
2024-01-16T05:15:09.059Z,99581.78
2024-01-16T05:17:36.175Z,99580.91
2024-01-16T05:20:05.381Z,99584.28
2024-01-16T05:22:32.113Z,99578.38
2024-01-16T05:25:00.277Z,99561.38
2024-01-16T05:27:26.917Z,99563.06
2024-01-16T05:29:53.797Z,99574.16
2024-01-16T05:32:20.617Z,99561.31
2024-01-16T05:34:47.278Z,99556.13
2024-01-16T05:37:13.959Z,99550.22
2024-01-16T05:39:40.557Z,99555.38
2024-01-16T05:42:07.547Z,99536.56
2024-01-16T05:44:34.748Z,99541.66
2024-01-16T05:47:01.699Z,99540.88
2024-01-16T05:49:28.359Z,99534.84
2024-01-16T05:51:55.021Z,99523.75
2024-01-16T05:54:21.690Z,99534.00
2024-01-16T05:56:48.404Z,99517.78
2024-01-16T05:59:15.147Z,99516.00
2024-01-16T06:01:41.764Z,99503.22
2024-01-16T06:04:08.844Z,99495.53
2024-01-16T06:06:36.188Z,99498.03
2024-01-16T06:09:06.279Z,99503.16
2024-01-16T06:11:34.114Z,99478.41
2024-01-16T06:14:01.034Z,99475.84
2024-01-16T06:16:27.842Z,99492.00
2024-01-16T06:18:54.732Z,99479.19
2024-01-16T06:21:24.565Z,99485.13
2024-01-16T06:23:51.683Z,99479.97
2024-01-16T06:26:18.727Z,99474.06
2024-01-16T06:28:45.546Z,99468.91
2024-01-16T06:31:12.881Z,99467.16
2024-01-16T06:33:39.690Z,99450.97
2024-01-16T06:36:07.053Z,99478.19
2024-01-16T06:38:33.775Z,99438.13
2024-01-16T06:41:00.424Z,99464.53
2024-01-16T06:43:27.343Z,99467.91
2024-01-16T06:45:54.389Z,99455.03
2024-01-16T06:48:21.211Z,99449.88
2024-01-16T06:50:47.928Z,99433.53
2024-01-16T06:53:16.978Z,99427.56
2024-01-16T06:55:43.950Z,99417.31
2024-01-16T06:58:11.450Z,99432.59
2024-01-16T07:00:38.562Z,99424.88
2024-01-16T07:03:05.279Z,99421.47
2024-01-16T07:05:32.021Z,99421.50
2024-01-16T07:07:59.384Z,99431.03
2024-01-16T07:10:26.133Z,99415.66
2024-01-16T07:12:53.014Z,99423.34
2024-01-16T07:15:19.784Z,99415.00
2024-01-16T07:17:47.108Z,99419.25
2024-01-16T07:20:14.450Z,99425.22
2024-01-16T07:22:41.255Z,99424.44
2024-01-16T07:25:08.972Z,99411.63
2024-01-16T07:27:36.370Z,99410.75
2024-01-16T07:30:06.000Z,99402.94
2024-01-16T07:32:33.337Z,99391.63
2024-01-16T07:35:00.372Z,99389.97
2024-01-16T07:37:26.983Z,99384.03
2024-01-16T07:39:53.594Z,99374.50
2024-01-16T07:42:20.184Z,99377.16
2024-01-16T07:44:46.939Z,99375.38
2024-01-16T07:47:13.670Z,99370.28
2024-01-16T07:49:40.443Z,99366.78
2024-01-16T07:52:07.792Z,99365.28
2024-01-16T07:54:34.469Z,99342.13
2024-01-16T07:57:01.168Z,99358.28
2024-01-16T07:59:27.880Z,99359.03
2024-01-16T08:01:54.771Z,99355.56
2024-01-16T08:04:21.430Z,99350.13
2024-01-16T08:06:48.605Z,99338.81
2024-01-16T08:09:15.479Z,99356.25
2024-01-16T08:11:42.202Z,99349.53
2024-01-16T08:14:09.518Z,99334.34
2024-01-16T08:16:36.506Z,99346.91
2024-01-16T08:19:04.918Z,99350.31
2024-01-16T08:21:31.734Z,99352.88
2024-01-16T08:23:58.696Z,99346.09
2024-01-16T08:26:25.604Z,99346.72
2024-01-16T08:28:52.630Z,99351.88
2024-01-16T08:31:22.345Z,99341.66
2024-01-16T08:33:51.560Z,99346.53
2024-01-16T08:36:20.293Z,99342.34
2024-01-16T08:38:47.142Z,99332.78
2024-01-16T08:41:14.065Z,99330.28
2024-01-16T08:43:40.713Z,99333.63
2024-01-16T08:46:08.087Z,99327.72
2024-01-16T08:48:34.861Z,99313.34
2024-01-16T08:51:04.315Z,99314.34
2024-01-16T08:53:32.207Z,99312.44
2024-01-16T08:55:59.152Z,99312.47
2024-01-16T08:58:25.893Z,99306.47
2024-01-16T09:00:52.556Z,99296.22
2024-01-16T09:03:19.620Z,99302.00
2024-01-16T09:05:46.617Z,99301.88
2024-01-16T09:08:14.116Z,99298.50
2024-01-16T09:10:41.064Z,99299.22
2024-01-16T09:13:08.369Z,99290.66
2024-01-16T09:15:35.800Z,99289.63
2024-01-16T09:18:03.074Z,99277.56
2024-01-16T09:20:29.888Z,99239.56
2024-01-16T09:22:56.635Z,99277.00
2024-01-16T09:25:26.052Z,99267.72
2024-01-16T09:27:52.723Z,99261.97
2024-01-16T09:30:20.221Z,99273.06
2024-01-16T09:32:47.099Z,99272.16
2024-01-16T09:35:14.005Z,99269.53
2024-01-16T09:37:41.184Z,99255.88
2024-01-16T09:40:08.686Z,99244.66
2024-01-16T09:42:35.578Z,99253.97
2024-01-16T09:45:04.569Z,99257.88
2024-01-16T09:47:35.709Z,99246.66
2024-01-16T09:50:04.326Z,99243.91
2024-01-16T09:52:31.261Z,99239.47
2024-01-16T09:54:57.991Z,99233.28
2024-01-16T09:57:27.048Z,99210.22
2024-01-16T09:59:54.279Z,99219.50
2024-01-16T10:02:24.455Z,99216.66
2024-01-16T10:04:51.136Z,99214.47
2024-01-16T10:07:19.320Z,99218.22
2024-01-16T10:09:45.993Z,99200.28
2024-01-16T10:12:12.738Z,99224.16
2024-01-16T10:14:40.278Z,99212.00
2024-01-16T10:17:07.493Z,99203.47
2024-01-16T10:19:43.410Z,99208.50
2024-01-16T10:22:24.452Z,99202.50
2024-01-16T10:25:21.009Z,99207.50
2024-01-16T10:27:48.305Z,99201.53
2024-01-16T10:30:15.131Z,99175.16
2024-01-16T10:32:43.504Z,99211.53
2024-01-16T10:35:14.454Z,99203.22
2024-01-16T10:37:49.774Z,99204.22
2024-01-16T10:40:32.147Z,99198.41
2024-01-16T10:43:04.931Z,99205.31
2024-01-16T10:45:35.209Z,99195.91
2024-01-16T10:48:09.610Z,99190.88
2024-01-16T10:50:39.616Z,99196.53
2024-01-16T10:53:08.312Z,99177.16
2024-01-16T10:55:53.556Z,99187.97
2024-01-16T10:58:25.231Z,99182.13
2024-01-16T11:00:55.154Z,99180.88
2024-01-16T11:03:37.025Z,99174.03
2024-01-16T11:06:08.971Z,99164.34
2024-01-16T11:08:39.623Z,99161.38
2024-01-16T11:11:09.169Z,99142.28
2024-01-16T11:13:37.102Z,99151.56
2024-01-16T11:16:08.651Z,99145.50
2024-01-16T11:18:39.138Z,99141.31
2024-01-16T11:21:11.186Z,99136.00
2024-01-16T11:23:40.812Z,99117.72
2024-01-16T11:26:29.459Z,99110.31
2024-01-16T11:29:00.865Z,99123.84
2024-01-16T11:31:35.524Z,99114.88
2024-01-16T11:34:06.391Z,99113.28
2024-01-16T11:37:01.313Z,99124.88
2024-01-16T11:39:28.116Z,99119.91
2024-01-16T11:41:57.176Z,99119.22
2024-01-16T11:44:43.781Z,99115.56
2024-01-16T11:47:17.525Z,99104.16
2024-01-16T11:49:44.430Z,99090.47
2024-01-16T11:52:14.033Z,99094.41
2024-01-16T11:54:42.845Z,99093.44
2024-01-16T11:57:42.091Z,99089.53
2024-01-16T12:00:20.893Z,99085.19
2024-01-16T12:02:55.067Z,99076.59
2024-01-16T12:05:22.701Z,99058.09
2024-01-16T12:07:51.946Z,99056.03
2024-01-16T12:10:20.130Z,99057.44
2024-01-16T12:12:48.537Z,99059.66
2024-01-16T12:15:20.045Z,99030.50
2024-01-16T12:18:00.712Z,99038.06
2024-01-16T12:20:29.701Z,99015.97
2024-01-16T12:23:04.660Z,99036.72
2024-01-16T12:26:00.352Z,99026.75
2024-01-16T12:30:52.900Z,99008.31
2024-01-16T12:33:23.568Z,98968.38
2024-01-16T12:35:50.988Z,98986.69
2024-01-16T12:38:18.340Z,98978.81
2024-01-16T12:40:50.681Z,98986.31
2024-01-16T12:43:19.588Z,98987.06
2024-01-16T12:45:46.837Z,98968.13
2024-01-16T12:48:14.324Z,98965.84
2024-01-16T12:50:41.466Z,98945.78
2024-01-16T12:53:12.654Z,98940.53
2024-01-16T12:55:41.390Z,98941.06
2024-01-16T12:58:23.316Z,98937.22
2024-01-16T13:00:52.801Z,98932.50
2024-01-16T13:03:31.336Z,98923.97
2024-01-16T13:06:02.596Z,98914.75
2024-01-16T13:08:30.072Z,98899.13
2024-01-16T13:11:04.516Z,98898.09
2024-01-16T13:13:31.353Z,98871.56
2024-01-16T13:15:58.965Z,98877.88
2024-01-16T13:18:27.720Z,98864.22
2024-01-16T13:20:56.208Z,98869.22
2024-01-16T13:23:23.560Z,98870.66
2024-01-16T13:25:51.178Z,98867.97
2024-01-16T13:28:19.109Z,98856.69
2024-01-16T13:30:48.232Z,98869.50
2024-01-16T13:33:15.722Z,98848.84
2024-01-16T13:35:44.585Z,98853.13
2024-01-16T13:38:12.805Z,98856.38
2024-01-16T13:40:39.733Z,98846.50
2024-01-16T13:43:07.663Z,98847.03
2024-01-16T13:45:36.407Z,98827.53
2024-01-16T13:48:03.628Z,98833.13
2024-01-16T13:50:31.118Z,98822.00
2024-01-16T13:52:57.869Z,98810.25
2024-01-16T13:55:24.692Z,98807.44
2024-01-16T13:57:53.095Z,98794.94
2024-01-16T14:00:19.891Z,98802.78
2024-01-16T14:02:48.522Z,98797.53
2024-01-16T14:05:17.008Z,98807.63
2024-01-16T14:07:44.220Z,98799.88
2024-01-16T14:10:13.170Z,98786.00
2024-01-16T14:12:40.752Z,98785.06
2024-01-16T14:15:16.984Z,98783.38
2024-01-16T14:17:45.023Z,98778.44
2024-01-16T14:20:12.764Z,98780.06
2024-01-16T14:22:40.977Z,98768.09
2024-01-16T14:25:13.372Z,98760.50
2024-01-16T14:27:41.242Z,98770.00
2024-01-16T14:30:11.803Z,98762.09
2024-01-16T14:32:41.698Z,98761.06
2024-01-16T14:35:10.704Z,98746.59
2024-01-16T14:37:38.481Z,98750.22
2024-01-16T14:40:29.189Z,98745.91
2024-01-16T14:43:00.234Z,98746.50
2024-01-16T14:45:32.342Z,98738.69
2024-01-16T14:47:59.481Z,98727.84
2024-01-16T14:50:26.324Z,98710.72
2024-01-16T14:52:53.702Z,98718.56
2024-01-16T14:55:23.769Z,98695.09
2024-01-16T14:57:54.322Z,98706.81
2024-01-16T15:00:21.291Z,98705.63
2024-01-16T15:02:49.146Z,98687.75
2024-01-16T15:05:23.065Z,98705.44
2024-01-16T15:07:53.112Z,98698.34
2024-01-16T15:10:19.904Z,98702.00
2024-01-16T15:12:48.096Z,98694.19
2024-01-16T15:15:16.587Z,98684.81
2024-01-16T15:17:44.832Z,98683.84
2024-01-16T15:20:12.235Z,98685.69
2024-01-16T15:22:46.677Z,98669.38
2024-01-16T15:25:17.913Z,98643.03
2024-01-16T15:27:46.312Z,98647.13
2024-01-16T15:30:15.078Z,98642.72
2024-01-16T15:32:42.378Z,98646.97
2024-01-16T15:35:09.322Z,98656.34
2024-01-16T15:37:36.218Z,98642.81
2024-01-16T15:40:06.501Z,98649.72
2024-01-16T15:42:34.231Z,98638.78
2024-01-16T15:45:00.926Z,98637.22
2024-01-16T15:47:27.743Z,98629.72
2024-01-16T15:49:55.604Z,98622.75
2024-01-16T15:52:22.271Z,98632.13
2024-01-16T15:54:48.833Z,98627.00
2024-01-16T15:57:15.895Z,98613.44
2024-01-16T15:59:42.842Z,98618.38
2024-01-16T16:02:09.795Z,98588.19
2024-01-16T16:04:37.083Z,98604.94
2024-01-16T16:07:04.513Z,98603.84
2024-01-16T16:09:31.247Z,98600.44
2024-01-16T16:11:58.047Z,98577.47
2024-01-16T16:14:24.866Z,98591.63
2024-01-16T16:16:51.977Z,98582.25
2024-01-16T16:19:19.102Z,98588.13
2024-01-16T16:21:46.703Z,98565.50
2024-01-16T16:24:13.319Z,98583.75
2024-01-16T16:26:43.106Z,98587.84
2024-01-16T16:29:12.000Z,98586.97
2024-01-16T16:31:39.310Z,98581.63
2024-01-16T16:34:08.964Z,98581.06
2024-01-16T16:36:35.722Z,98575.09
2024-01-16T16:39:02.308Z,98565.28
2024-01-16T16:41:29.564Z,98569.53
2024-01-16T16:43:56.339Z,98557.50
2024-01-16T16:46:23.769Z,98574.44
2024-01-16T16:48:51.023Z,98569.44
2024-01-16T16:51:19.712Z,98566.75
2024-01-16T16:53:47.120Z,98552.28
2024-01-16T16:56:15.388Z,98566.44
2024-01-16T16:58:46.733Z,98550.50
2024-01-16T17:01:16.252Z,98540.69
2024-01-16T17:03:45.047Z,98554.06
2024-01-16T17:06:12.087Z,98565.25
2024-01-16T17:08:40.622Z,98566.59
2024-01-16T17:11:11.326Z,98564.16
2024-01-16T17:13:41.521Z,98558.50
2024-01-16T17:16:11.660Z,98552.22
2024-01-16T17:18:39.588Z,98561.72
2024-01-16T17:21:07.745Z,98558.53
2024-01-16T17:23:35.693Z,98577.41
2024-01-16T17:26:03.233Z,98580.22
2024-01-16T17:28:30.325Z,98562.50
2024-01-16T17:30:59.588Z,98571.72
2024-01-16T17:33:27.227Z,98565.06
2024-01-16T17:35:56.129Z,98556.41
2024-01-16T17:38:22.820Z,98567.09
2024-01-16T17:40:50.813Z,98559.34
2024-01-16T17:43:17.666Z,98565.34
2024-01-16T17:45:45.212Z,98554.06
2024-01-16T17:48:12.051Z,98550.53
2024-01-16T17:50:39.112Z,98554.03
2024-01-16T17:53:08.900Z,98546.91
2024-01-16T17:55:35.804Z,98551.41
2024-01-16T17:58:02.550Z,98553.06
2024-01-16T18:00:30.632Z,98528.88
2024-01-16T18:02:59.007Z,98523.19
2024-01-16T18:05:30.801Z,98540.50
2024-01-16T18:07:57.981Z,98535.66
2024-01-16T18:10:25.260Z,98531.47
2024-01-16T18:12:52.028Z,98542.88
2024-01-16T18:15:19.150Z,98522.78
2024-01-16T18:17:47.266Z,98528.50
2024-01-16T18:20:17.801Z,98521.47
2024-01-16T18:22:46.022Z,98518.06
2024-01-16T18:25:15.163Z,98518.75
2024-01-16T18:27:45.647Z,98507.19
2024-01-16T18:30:16.833Z,98513.34
2024-01-16T18:32:44.428Z,98509.25
2024-01-16T18:35:13.317Z,98511.25
2024-01-16T18:37:43.889Z,98511.88
2024-01-16T18:40:11.645Z,98511.97
2024-01-16T18:42:41.608Z,98520.31
2024-01-16T18:45:16.890Z,98503.63
2024-01-16T18:47:46.156Z,98517.22
2024-01-16T18:50:13.951Z,98511.34
2024-01-16T18:52:42.796Z,98500.09
2024-01-16T18:55:12.468Z,98516.81
2024-01-16T18:57:43.244Z,98500.97
2024-01-16T19:00:19.333Z,98512.34
2024-01-16T19:02:49.440Z,98511.00
2024-01-16T19:05:17.152Z,98511.88
2024-01-16T19:07:45.678Z,98509.44
2024-01-16T19:10:14.358Z,98514.69
2024-01-16T19:12:47.544Z,98524.31
2024-01-16T19:15:20.825Z,98512.50
2024-01-16T19:17:49.121Z,98533.06
2024-01-16T19:20:16.239Z,98532.00
2024-01-16T19:22:44.750Z,98536.75
2024-01-16T19:25:29.409Z,98540.91
2024-01-16T19:27:56.336Z,98541.66
2024-01-16T19:30:24.049Z,98541.47
2024-01-16T19:32:51.200Z,98549.56
2024-01-16T19:35:18.510Z,98558.47
2024-01-16T19:37:45.812Z,98573.81
2024-01-16T19:40:14.451Z,98567.47
2024-01-16T19:42:42.118Z,98565.09
2024-01-16T19:45:10.621Z,98558.34
2024-01-16T19:47:43.329Z,98579.09
2024-01-16T19:50:21.377Z,98578.09
2024-01-16T19:52:55.741Z,98575.97
2024-01-16T19:55:25.451Z,98571.84
2024-01-16T19:57:53.516Z,98557.41
2024-01-16T20:00:20.920Z,98560.09
2024-01-16T20:02:48.386Z,98553.06
2024-01-16T20:05:17.129Z,98563.97
2024-01-16T20:07:45.011Z,98573.13
2024-01-16T20:10:15.592Z,98571.25
2024-01-16T20:12:43.171Z,98565.44
2024-01-16T20:15:14.990Z,98567.88
2024-01-16T20:17:42.508Z,98553.22
2024-01-16T20:20:10.918Z,98579.19
2024-01-16T20:22:41.159Z,98574.44
2024-01-16T20:25:07.919Z,98585.03
2024-01-16T20:27:35.417Z,98578.09
2024-01-16T20:30:06.382Z,98578.28
2024-01-16T20:32:33.586Z,98578.03
2024-01-16T20:35:00.431Z,98573.78
2024-01-16T20:37:27.860Z,98571.97
2024-01-16T20:39:54.479Z,98554.88
2024-01-16T20:42:21.072Z,98571.28
2024-01-16T20:44:47.921Z,98579.34
2024-01-16T20:47:14.829Z,98567.47
2024-01-16T20:49:41.690Z,98573.28
2024-01-16T20:52:08.571Z,98574.03
2024-01-16T20:54:39.352Z,98583.31
2024-01-16T20:57:06.997Z,98574.97
2024-01-16T20:59:33.877Z,98563.09
2024-01-16T21:02:01.044Z,98581.28
2024-01-16T21:04:27.895Z,98579.34
2024-01-16T21:06:59.632Z,98589.78
2024-01-16T21:09:27.549Z,98585.91
2024-01-16T21:11:58.555Z,98587.53
2024-01-16T21:14:25.928Z,98573.13
2024-01-16T21:16:53.318Z,98601.69
2024-01-16T21:19:22.216Z,98599.53
2024-01-16T21:21:52.468Z,98603.03
2024-01-16T21:24:20.062Z,98598.03
2024-01-16T21:26:48.084Z,98582.13
2024-01-16T21:29:15.241Z,98596.53
2024-01-16T21:31:49.986Z,98600.25
2024-01-16T21:34:18.414Z,98588.38
2024-01-16T21:36:48.454Z,98586.59
2024-01-16T21:39:16.549Z,98588.25
2024-01-16T21:41:44.319Z,98580.56
2024-01-16T21:44:12.101Z,98580.50
2024-01-16T21:46:40.332Z,98587.97
2024-01-16T21:49:07.168Z,98589.13
2024-01-16T21:51:33.993Z,98581.28
2024-01-16T21:54:02.527Z,98572.47
2024-01-16T21:56:29.484Z,98578.41
2024-01-16T21:58:57.618Z,98581.22
2024-01-16T22:01:24.213Z,98571.94
2024-01-16T22:03:51.345Z,98575.72
2024-01-16T22:06:18.144Z,98578.97
2024-01-16T22:08:52.768Z,98578.41
2024-01-16T22:11:20.239Z,98559.44
2024-01-16T22:13:47.086Z,98568.69
2024-01-16T22:16:14.102Z,98559.34
2024-01-16T22:18:43.132Z,98573.88
2024-01-16T22:21:11.474Z,98574.00
2024-01-16T22:23:38.165Z,98578.41
2024-01-16T22:26:04.954Z,98579.13
2024-01-16T22:28:31.651Z,98579.22
2024-01-16T22:30:58.423Z,98573.34
2024-01-16T22:33:25.258Z,98588.72
2024-01-16T22:35:52.081Z,98588.13
2024-01-16T22:38:19.542Z,98577.81
2024-01-16T22:40:46.684Z,98586.94
2024-01-16T22:43:13.344Z,98568.59
2024-01-16T22:45:40.711Z,98572.56
2024-01-16T22:48:12.469Z,98571.81
2024-01-16T22:50:43.805Z,98579.78
2024-01-16T22:53:11.313Z,98582.41
2024-01-16T22:55:38.123Z,98580.72
2024-01-16T22:58:04.833Z,98582.28
2024-01-16T23:00:31.795Z,98569.00
2024-01-16T23:02:58.912Z,98590.69
2024-01-16T23:05:28.440Z,98581.50
2024-01-16T23:07:56.488Z,98565.50
2024-01-16T23:10:23.415Z,98575.50
2024-01-16T23:12:50.129Z,98583.22
2024-01-16T23:15:16.993Z,98565.44
2024-01-16T23:17:44.462Z,98567.22
2024-01-16T23:20:16.127Z,98565.72
2024-01-16T23:22:46.484Z,98572.41
2024-01-16T23:25:14.340Z,98573.97
2024-01-16T23:27:42.723Z,98564.84
2024-01-16T23:30:11.716Z,98569.81
2024-01-16T23:32:39.199Z,98565.72
2024-01-16T23:35:08.813Z,98563.06
2024-01-16T23:37:37.289Z,98559.72
2024-01-16T23:40:10.470Z,98514.03
2024-01-16T23:42:39.529Z,98561.31
2024-01-16T23:45:14.426Z,98560.81
2024-01-16T23:47:50.421Z,98549.75
2024-01-16T23:50:18.253Z,98536.81
2024-01-16T23:52:45.793Z,98553.84
2024-01-16T23:55:16.003Z,98552.13
2024-01-16T23:57:42.774Z,98545.59
